sensor_id;sensor_type;location;lat;lon;timestamp;temperature;humidity
38902;DHT22;24661;53.566;9.910;2023-05-23T00:00:40;16.40;99.90
38902;DHT22;24661;53.566;9.910;2023-05-23T00:03:06;16.40;99.90
38902;DHT22;24661;53.566;9.910;2023-05-23T00:05:31;16.40;99.90
38902;DHT22;24661;53.566;9.910;2023-05-23T00:07:57;16.30;99.90
38902;DHT22;24661;53.566;9.910;2023-05-23T00:10:22;16.50;99.90
38902;DHT22;24661;53.566;9.910;2023-05-23T00:12:48;16.30;99.90
38902;DHT22;24661;53.566;9.910;2023-05-23T00:15:13;16.40;99.90
38902;DHT22;24661;53.566;9.910;2023-05-23T00:17:39;16.40;99.90
38902;DHT22;24661;53.566;9.910;2023-05-23T00:20:06;16.40;99.90
38902;DHT22;24661;53.566;9.910;2023-05-23T00:22:36;16.40;99.90
38902;DHT22;24661;53.566;9.910;2023-05-23T00:25:05;16.40;99.90
38902;DHT22;24661;53.566;9.910;2023-05-23T00:27:30;16.40;99.90
38902;DHT22;24661;53.566;9.910;2023-05-23T00:29:56;16.40;99.90
38902;DHT22;24661;53.566;9.910;2023-05-23T00:32:21;16.40;99.90
38902;DHT22;24661;53.566;9.910;2023-05-23T00:34:47;16.30;99.90
38902;DHT22;24661;53.566;9.910;2023-05-23T00:37:12;16.30;99.90
38902;DHT22;24661;53.566;9.910;2023-05-23T00:39:39;16.30;99.90
38902;DHT22;24661;53.566;9.910;2023-05-23T00:42:05;16.30;99.90
38902;DHT22;24661;53.566;9.910;2023-05-23T00:44:32;16.40;99.90
38902;DHT22;24661;53.566;9.910;2023-05-23T00:46:58;16.30;99.90
38902;DHT22;24661;53.566;9.910;2023-05-23T00:49:23;16.30;99.90
38902;DHT22;24661;53.566;9.910;2023-05-23T00:51:52;16.30;99.90
38902;DHT22;24661;53.566;9.910;2023-05-23T00:54:22;16.30;99.90
38902;DHT22;24661;53.566;9.910;2023-05-23T00:56:48;16.20;99.90
38902;DHT22;24661;53.566;9.910;2023-05-23T00:59:14;16.30;99.90
38902;DHT22;24661;53.566;9.910;2023-05-23T01:01:41;16.20;99.90
38902;DHT22;24661;53.566;9.910;2023-05-23T01:04:11;16.20;99.90
38902;DHT22;24661;53.566;9.910;2023-05-23T01:06:37;16.20;99.90
38902;DHT22;24661;53.566;9.910;2023-05-23T01:09:03;16.30;99.90
38902;DHT22;24661;53.566;9.910;2023-05-23T01:11:42;16.30;99.90
38902;DHT22;24661;53.566;9.910;2023-05-23T01:14:18;16.30;99.90
38902;DHT22;24661;53.566;9.910;2023-05-23T01:17:00;16.30;99.90
38902;DHT22;24661;53.566;9.910;2023-05-23T01:19:58;16.30;99.90
38902;DHT22;24661;53.566;9.910;2023-05-23T01:22:48;16.40;99.90
38902;DHT22;24661;53.566;9.910;2023-05-23T01:28:14;16.30;99.90
38902;DHT22;24661;53.566;9.910;2023-05-23T01:30:42;16.30;99.90
38902;DHT22;24661;53.566;9.910;2023-05-23T01:33:09;16.30;99.90
38902;DHT22;24661;53.566;9.910;2023-05-23T01:35:37;16.30;99.90
38902;DHT22;24661;53.566;9.910;2023-05-23T01:38:03;16.30;99.90
38902;DHT22;24661;53.566;9.910;2023-05-23T01:40:28;16.30;99.90
38902;DHT22;24661;53.566;9.910;2023-05-23T01:42:55;16.30;99.90
38902;DHT22;24661;53.566;9.910;2023-05-23T01:45:23;16.20;99.90
38902;DHT22;24661;53.566;9.910;2023-05-23T01:47:50;16.10;99.90
38902;DHT22;24661;53.566;9.910;2023-05-23T01:50:16;15.90;99.90
38902;DHT22;24661;53.566;9.910;2023-05-23T01:52:42;15.80;99.90
38902;DHT22;24661;53.566;9.910;2023-05-23T01:55:09;15.70;99.90
38902;DHT22;24661;53.566;9.910;2023-05-23T01:57:36;15.50;99.90
38902;DHT22;24661;53.566;9.910;2023-05-23T02:00:04;15.40;99.90
38902;DHT22;24661;53.566;9.910;2023-05-23T02:02:33;15.30;99.90
38902;DHT22;24661;53.566;9.910;2023-05-23T02:04:59;16.90;99.90
38902;DHT22;24661;53.566;9.910;2023-05-23T02:07:25;15.20;99.90
38902;DHT22;24661;53.566;9.910;2023-05-23T02:09:50;15.20;99.90
38902;DHT22;24661;53.566;9.910;2023-05-23T02:12:16;15.10;99.90
38902;DHT22;24661;53.566;9.910;2023-05-23T02:14:41;15.10;99.90
38902;DHT22;24661;53.566;9.910;2023-05-23T02:17:07;15.00;99.90
38902;DHT22;24661;53.566;9.910;2023-05-23T02:19:36;15.00;99.90
38902;DHT22;24661;53.566;9.910;2023-05-23T02:22:02;14.90;99.90
38902;DHT22;24661;53.566;9.910;2023-05-23T02:24:28;14.90;99.90
38902;DHT22;24661;53.566;9.910;2023-05-23T02:26:54;14.90;99.90
38902;DHT22;24661;53.566;9.910;2023-05-23T02:29:19;14.90;99.90
38902;DHT22;24661;53.566;9.910;2023-05-23T02:31:45;14.90;99.90
38902;DHT22;24661;53.566;9.910;2023-05-23T02:34:10;14.90;99.90
38902;DHT22;24661;53.566;9.910;2023-05-23T02:36:36;14.90;99.90
38902;DHT22;24661;53.566;9.910;2023-05-23T02:39:02;14.90;99.90
38902;DHT22;24661;53.566;9.910;2023-05-23T02:41:29;14.90;99.90
38902;DHT22;24661;53.566;9.910;2023-05-23T02:43:54;14.80;99.90
38902;DHT22;24661;53.566;9.910;2023-05-23T02:46:20;14.80;99.90
38902;DHT22;24661;53.566;9.910;2023-05-23T02:48:45;14.70;99.90
38902;DHT22;24661;53.566;9.910;2023-05-23T02:51:11;14.80;99.90
38902;DHT22;24661;53.566;9.910;2023-05-23T02:53:38;14.80;99.90
38902;DHT22;24661;53.566;9.910;2023-05-23T02:56:04;14.80;99.90
38902;DHT22;24661;53.566;9.910;2023-05-23T02:58:30;14.70;99.90
38902;DHT22;24661;53.566;9.910;2023-05-23T03:00:56;14.80;99.90
38902;DHT22;24661;53.566;9.910;2023-05-23T03:03:22;14.70;99.90
38902;DHT22;24661;53.566;9.910;2023-05-23T03:05:47;14.60;99.90
38902;DHT22;24661;53.566;9.910;2023-05-23T03:08:13;14.60;99.90
38902;DHT22;24661;53.566;9.910;2023-05-23T03:10:39;14.60;99.90
38902;DHT22;24661;53.566;9.910;2023-05-23T03:13:04;14.60;99.90
38902;DHT22;24661;53.566;9.910;2023-05-23T03:15:30;14.60;99.90
38902;DHT22;24661;53.566;9.910;2023-05-23T03:17:55;14.60;99.90
38902;DHT22;24661;53.566;9.910;2023-05-23T03:20:21;14.60;99.90
38902;DHT22;24661;53.566;9.910;2023-05-23T03:22:46;14.50;99.90
38902;DHT22;24661;53.566;9.910;2023-05-23T03:25:14;14.60;99.90
38902;DHT22;24661;53.566;9.910;2023-05-23T03:27:39;14.60;99.90
38902;DHT22;24661;53.566;9.910;2023-05-23T03:30:05;14.60;99.90
38902;DHT22;24661;53.566;9.910;2023-05-23T03:32:31;14.60;99.90
38902;DHT22;24661;53.566;9.910;2023-05-23T03:34:56;14.60;99.90
38902;DHT22;24661;53.566;9.910;2023-05-23T03:37:22;14.50;99.90
38902;DHT22;24661;53.566;9.910;2023-05-23T03:39:48;14.50;99.90
38902;DHT22;24661;53.566;9.910;2023-05-23T03:42:13;14.50;99.90
38902;DHT22;24661;53.566;9.910;2023-05-23T03:44:39;14.50;99.90
38902;DHT22;24661;53.566;9.910;2023-05-23T03:47:04;14.50;99.90
38902;DHT22;24661;53.566;9.910;2023-05-23T03:49:30;14.50;99.90
38902;DHT22;24661;53.566;9.910;2023-05-23T03:51:55;14.50;99.90
38902;DHT22;24661;53.566;9.910;2023-05-23T03:54:21;14.40;99.90
38902;DHT22;24661;53.566;9.910;2023-05-23T03:56:47;14.40;99.90
38902;DHT22;24661;53.566;9.910;2023-05-23T03:59:12;15.90;99.90
38902;DHT22;24661;53.566;9.910;2023-05-23T04:01:38;14.40;99.90
38902;DHT22;24661;53.566;9.910;2023-05-23T04:04:04;14.40;99.90
38902;DHT22;24661;53.566;9.910;2023-05-23T04:06:29;14.50;99.90
38902;DHT22;24661;53.566;9.910;2023-05-23T04:08:56;14.40;99.90
38902;DHT22;24661;53.566;9.910;2023-05-23T04:11:21;14.40;99.90
38902;DHT22;24661;53.566;9.910;2023-05-23T04:13:48;14.30;99.90
38902;DHT22;24661;53.566;9.910;2023-05-23T04:16:13;14.30;99.90
38902;DHT22;24661;53.566;9.910;2023-05-23T04:18:39;14.40;99.90
38902;DHT22;24661;53.566;9.910;2023-05-23T04:21:05;14.40;99.90
38902;DHT22;24661;53.566;9.910;2023-05-23T04:23:30;14.40;99.90
38902;DHT22;24661;53.566;9.910;2023-05-23T04:25:56;14.30;99.90
38902;DHT22;24661;53.566;9.910;2023-05-23T04:28:22;14.30;99.90
38902;DHT22;24661;53.566;9.910;2023-05-23T04:30:48;14.30;99.90
38902;DHT22;24661;53.566;9.910;2023-05-23T04:33:14;14.30;99.90
38902;DHT22;24661;53.566;9.910;2023-05-23T04:35:39;14.30;99.90
38902;DHT22;24661;53.566;9.910;2023-05-23T04:38:05;14.30;99.90
38902;DHT22;24661;53.566;9.910;2023-05-23T04:40:31;14.30;99.90
38902;DHT22;24661;53.566;9.910;2023-05-23T04:42:56;14.30;99.90
38902;DHT22;24661;53.566;9.910;2023-05-23T04:45:22;14.30;99.90
38902;DHT22;24661;53.566;9.910;2023-05-23T04:47:48;14.20;99.90
38902;DHT22;24661;53.566;9.910;2023-05-23T04:50:13;14.30;99.90
38902;DHT22;24661;53.566;9.910;2023-05-23T04:52:40;14.30;99.90
38902;DHT22;24661;53.566;9.910;2023-05-23T04:55:06;14.20;99.90
38902;DHT22;24661;53.566;9.910;2023-05-23T04:57:33;14.20;99.90
38902;DHT22;24661;53.566;9.910;2023-05-23T04:59:58;14.30;99.90
38902;DHT22;24661;53.566;9.910;2023-05-23T05:02:25;14.20;99.90
38902;DHT22;24661;53.566;9.910;2023-05-23T05:04:51;14.20;99.90
38902;DHT22;24661;53.566;9.910;2023-05-23T05:07:17;14.30;99.90
38902;DHT22;24661;53.566;9.910;2023-05-23T05:09:43;14.20;99.90
38902;DHT22;24661;53.566;9.910;2023-05-23T05:12:08;14.20;99.90
38902;DHT22;24661;53.566;9.910;2023-05-23T05:14:34;14.20;99.90
38902;DHT22;24661;53.566;9.910;2023-05-23T05:16:59;14.20;99.90
38902;DHT22;24661;53.566;9.910;2023-05-23T05:19:27;14.20;99.90
38902;DHT22;24661;53.566;9.910;2023-05-23T05:21:52;14.30;99.90
38902;DHT22;24661;53.566;9.910;2023-05-23T05:24:18;14.30;99.90
38902;DHT22;24661;53.566;9.910;2023-05-23T05:26:46;14.20;99.90
38902;DHT22;24661;53.566;9.910;2023-05-23T05:29:12;14.20;99.90
38902;DHT22;24661;53.566;9.910;2023-05-23T05:31:37;14.20;99.90
38902;DHT22;24661;53.566;9.910;2023-05-23T05:34:03;14.20;99.90
38902;DHT22;24661;53.566;9.910;2023-05-23T05:36:29;14.20;99.90
38902;DHT22;24661;53.566;9.910;2023-05-23T05:38:56;14.30;99.90
38902;DHT22;24661;53.566;9.910;2023-05-23T05:41:22;14.20;99.90
38902;DHT22;24661;53.566;9.910;2023-05-23T05:43:47;14.50;99.90
38902;DHT22;24661;53.566;9.910;2023-05-23T05:46:13;14.20;99.90
38902;DHT22;24661;53.566;9.910;2023-05-23T05:48:38;14.20;99.90
38902;DHT22;24661;53.566;9.910;2023-05-23T05:51:04;14.20;99.90
38902;DHT22;24661;53.566;9.910;2023-05-23T05:53:30;14.20;99.90
38902;DHT22;24661;53.566;9.910;2023-05-23T05:55:55;14.30;99.90
38902;DHT22;24661;53.566;9.910;2023-05-23T05:58:21;14.40;99.90
38902;DHT22;24661;53.566;9.910;2023-05-23T06:00:47;14.40;99.90
38902;DHT22;24661;53.566;9.910;2023-05-23T06:03:13;14.40;99.90
38902;DHT22;24661;53.566;9.910;2023-05-23T06:05:40;14.30;99.90
38902;DHT22;24661;53.566;9.910;2023-05-23T06:08:06;14.30;99.90
38902;DHT22;24661;53.566;9.910;2023-05-23T06:10:32;14.40;99.90
38902;DHT22;24661;53.566;9.910;2023-05-23T06:12:58;14.40;99.90
38902;DHT22;24661;53.566;9.910;2023-05-23T06:15:24;14.50;99.90
38902;DHT22;24661;53.566;9.910;2023-05-23T06:17:51;14.30;99.90
38902;DHT22;24661;53.566;9.910;2023-05-23T06:20:17;14.40;99.90
38902;DHT22;24661;53.566;9.910;2023-05-23T06:22:43;14.40;99.90
38902;DHT22;24661;53.566;9.910;2023-05-23T06:25:08;14.40;99.90
38902;DHT22;24661;53.566;9.910;2023-05-23T06:27:34;14.40;99.90
38902;DHT22;24661;53.566;9.910;2023-05-23T06:30:00;14.30;99.90
38902;DHT22;24661;53.566;9.910;2023-05-23T06:32:25;14.40;99.90
38902;DHT22;24661;53.566;9.910;2023-05-23T06:34:51;14.40;99.90
38902;DHT22;24661;53.566;9.910;2023-05-23T06:37:16;14.40;99.90
38902;DHT22;24661;53.566;9.910;2023-05-23T06:39:42;14.30;99.90
38902;DHT22;24661;53.566;9.910;2023-05-23T06:42:08;14.20;99.90
38902;DHT22;24661;53.566;9.910;2023-05-23T06:44:34;14.30;99.90
38902;DHT22;24661;53.566;9.910;2023-05-23T06:46:59;14.30;99.90
38902;DHT22;24661;53.566;9.910;2023-05-23T06:49:25;14.30;99.90
38902;DHT22;24661;53.566;9.910;2023-05-23T06:51:51;14.30;99.90
38902;DHT22;24661;53.566;9.910;2023-05-23T06:54:18;14.30;99.90
38902;DHT22;24661;53.566;9.910;2023-05-23T06:56:43;14.30;99.90
38902;DHT22;24661;53.566;9.910;2023-05-23T06:59:09;14.30;99.90
38902;DHT22;24661;53.566;9.910;2023-05-23T07:01:35;14.20;99.90
38902;DHT22;24661;53.566;9.910;2023-05-23T07:04:02;14.20;99.90
38902;DHT22;24661;53.566;9.910;2023-05-23T07:06:28;14.20;99.90
38902;DHT22;24661;53.566;9.910;2023-05-23T07:08:53;14.00;99.90
38902;DHT22;24661;53.566;9.910;2023-05-23T07:11:21;14.00;99.90
38902;DHT22;24661;53.566;9.910;2023-05-23T07:13:47;14.00;99.90
38902;DHT22;24661;53.566;9.910;2023-05-23T07:16:13;13.90;99.90
38902;DHT22;24661;53.566;9.910;2023-05-23T07:18:38;13.80;99.90
38902;DHT22;24661;53.566;9.910;2023-05-23T07:21:04;13.90;99.90
38902;DHT22;24661;53.566;9.910;2023-05-23T07:23:33;13.70;99.90
38902;DHT22;24661;53.566;9.910;2023-05-23T07:25:59;13.80;99.90
38902;DHT22;24661;53.566;9.910;2023-05-23T07:28:25;13.70;99.90
38902;DHT22;24661;53.566;9.910;2023-05-23T07:30:50;13.70;99.90
38902;DHT22;24661;53.566;9.910;2023-05-23T07:33:16;13.80;99.90
38902;DHT22;24661;53.566;9.910;2023-05-23T07:35:43;14.00;99.90
38902;DHT22;24661;53.566;9.910;2023-05-23T07:38:08;13.90;99.90
38902;DHT22;24661;53.566;9.910;2023-05-23T07:40:34;13.90;99.90
38902;DHT22;24661;53.566;9.910;2023-05-23T07:43:00;14.00;99.90
38902;DHT22;24661;53.566;9.910;2023-05-23T07:45:25;14.00;99.90
38902;DHT22;24661;53.566;9.910;2023-05-23T07:47:51;14.10;99.90
38902;DHT22;24661;53.566;9.910;2023-05-23T07:50:17;14.00;99.90
38902;DHT22;24661;53.566;9.910;2023-05-23T07:52:43;13.90;99.90
38902;DHT22;24661;53.566;9.910;2023-05-23T07:55:08;13.80;99.90
38902;DHT22;24661;53.566;9.910;2023-05-23T07:57:34;13.80;99.90
38902;DHT22;24661;53.566;9.910;2023-05-23T08:00:00;13.80;99.90
38902;DHT22;24661;53.566;9.910;2023-05-23T08:02:25;13.70;99.90
38902;DHT22;24661;53.566;9.910;2023-05-23T08:04:51;13.90;99.90
38902;DHT22;24661;53.566;9.910;2023-05-23T08:07:18;13.80;99.90
38902;DHT22;24661;53.566;9.910;2023-05-23T08:09:44;13.80;99.90
38902;DHT22;24661;53.566;9.910;2023-05-23T08:12:10;13.80;99.90
38902;DHT22;24661;53.566;9.910;2023-05-23T08:14:36;13.80;99.90
38902;DHT22;24661;53.566;9.910;2023-05-23T08:17:01;13.90;99.90
38902;DHT22;24661;53.566;9.910;2023-05-23T08:19:27;13.90;99.90
38902;DHT22;24661;53.566;9.910;2023-05-23T08:21:53;13.90;99.90
38902;DHT22;24661;53.566;9.910;2023-05-23T08:24:19;13.90;99.90
38902;DHT22;24661;53.566;9.910;2023-05-23T08:26:45;13.90;99.90
38902;DHT22;24661;53.566;9.910;2023-05-23T08:29:11;13.80;99.90
38902;DHT22;24661;53.566;9.910;2023-05-23T08:31:37;13.90;99.90
38902;DHT22;24661;53.566;9.910;2023-05-23T08:34:02;13.70;99.90
38902;DHT22;24661;53.566;9.910;2023-05-23T08:36:28;13.80;99.90
38902;DHT22;24661;53.566;9.910;2023-05-23T08:38:53;13.70;99.90
38902;DHT22;24661;53.566;9.910;2023-05-23T08:41:21;15.10;99.90
38902;DHT22;24661;53.566;9.910;2023-05-23T08:43:47;13.70;99.90
38902;DHT22;24661;53.566;9.910;2023-05-23T08:46:14;13.70;99.90
38902;DHT22;24661;53.566;9.910;2023-05-23T08:48:41;13.70;99.90
38902;DHT22;24661;53.566;9.910;2023-05-23T08:51:09;13.70;99.90
38902;DHT22;24661;53.566;9.910;2023-05-23T08:53:40;13.70;99.90
38902;DHT22;24661;53.566;9.910;2023-05-23T08:56:07;13.60;99.90
38902;DHT22;24661;53.566;9.910;2023-05-23T08:58:34;13.50;99.90
38902;DHT22;24661;53.566;9.910;2023-05-23T09:01:00;13.40;99.90
38902;DHT22;24661;53.566;9.910;2023-05-23T09:03:26;13.30;99.90
38902;DHT22;24661;53.566;9.910;2023-05-23T09:05:53;13.20;99.90
38902;DHT22;24661;53.566;9.910;2023-05-23T09:08:19;13.10;99.90
38902;DHT22;24661;53.566;9.910;2023-05-23T09:10:48;13.10;99.90
38902;DHT22;24661;53.566;9.910;2023-05-23T09:13:16;13.10;99.90
38902;DHT22;24661;53.566;9.910;2023-05-23T09:16:08;13.00;99.90
38902;DHT22;24661;53.566;9.910;2023-05-23T09:18:36;13.00;99.90
38902;DHT22;24661;53.566;9.910;2023-05-23T09:21:02;12.90;99.90
38902;DHT22;24661;53.566;9.910;2023-05-23T09:23:31;12.90;99.90
38902;DHT22;24661;53.566;9.910;2023-05-23T09:26:04;12.70;99.90
38902;DHT22;24661;53.566;9.910;2023-05-23T09:28:34;12.80;99.90
38902;DHT22;24661;53.566;9.910;2023-05-23T09:31:01;12.80;99.90
38902;DHT22;24661;53.566;9.910;2023-05-23T09:33:45;12.80;99.90
38902;DHT22;24661;53.566;9.910;2023-05-23T09:36:15;12.70;99.90
38902;DHT22;24661;53.566;9.910;2023-05-23T09:38:45;12.80;99.90
38902;DHT22;24661;53.566;9.910;2023-05-23T09:41:11;12.70;99.90
38902;DHT22;24661;53.566;9.910;2023-05-23T09:44:04;12.70;99.90
38902;DHT22;24661;53.566;9.910;2023-05-23T09:46:33;12.80;99.90
38902;DHT22;24661;53.566;9.910;2023-05-23T09:48:59;12.80;99.90
38902;DHT22;24661;53.566;9.910;2023-05-23T09:51:25;12.80;99.90
38902;DHT22;24661;53.566;9.910;2023-05-23T09:53:50;12.80;99.90
38902;DHT22;24661;53.566;9.910;2023-05-23T09:56:18;12.70;99.90
38902;DHT22;24661;53.566;9.910;2023-05-23T09:58:48;12.70;99.90
38902;DHT22;24661;53.566;9.910;2023-05-23T10:01:15;12.70;99.90
38902;DHT22;24661;53.566;9.910;2023-05-23T10:03:52;12.70;99.90
38902;DHT22;24661;53.566;9.910;2023-05-23T10:06:42;12.70;99.90
38902;DHT22;24661;53.566;9.910;2023-05-23T10:09:12;12.70;99.90
38902;DHT22;24661;53.566;9.910;2023-05-23T10:14:51;12.90;99.90
38902;DHT22;24661;53.566;9.910;2023-05-23T10:20:00;12.70;99.90
38902;DHT22;24661;53.566;9.910;2023-05-23T10:22:35;12.70;99.90
38902;DHT22;24661;53.566;9.910;2023-05-23T10:25:03;12.70;99.90
38902;DHT22;24661;53.566;9.910;2023-05-23T10:27:30;12.70;99.90
38902;DHT22;24661;53.566;9.910;2023-05-23T10:29:58;12.60;99.90
38902;DHT22;24661;53.566;9.910;2023-05-23T10:32:26;12.70;99.90
38902;DHT22;24661;53.566;9.910;2023-05-23T10:43:26;12.90;99.90
38902;DHT22;24661;53.566;9.910;2023-05-23T10:45:53;13.00;99.90
38902;DHT22;24661;53.566;9.910;2023-05-23T10:48:31;13.00;99.90
38902;DHT22;24661;53.566;9.910;2023-05-23T10:51:07;12.90;99.90
38902;DHT22;24661;53.566;9.910;2023-05-23T10:53:56;12.90;99.90
38902;DHT22;24661;53.566;9.910;2023-05-23T10:56:22;13.00;99.90
38902;DHT22;24661;53.566;9.910;2023-05-23T10:58:55;13.10;99.90
38902;DHT22;24661;53.566;9.910;2023-05-23T11:01:22;13.30;99.90
38902;DHT22;24661;53.566;9.910;2023-05-23T11:03:50;13.40;99.90
38902;DHT22;24661;53.566;9.910;2023-05-23T11:09:11;13.70;99.90
38902;DHT22;24661;53.566;9.910;2023-05-23T11:11:59;13.80;99.90
38902;DHT22;24661;53.566;9.910;2023-05-23T11:16:56;13.70;99.90
38902;DHT22;24661;53.566;9.910;2023-05-23T11:19:23;13.70;99.90
38902;DHT22;24661;53.566;9.910;2023-05-23T11:22:03;14.10;99.90
38902;DHT22;24661;53.566;9.910;2023-05-23T11:24:50;14.30;99.90
38902;DHT22;24661;53.566;9.910;2023-05-23T11:27:17;14.20;99.90
38902;DHT22;24661;53.566;9.910;2023-05-23T11:32:22;14.30;99.90
38902;DHT22;24661;53.566;9.910;2023-05-23T11:34:48;14.30;99.90
38902;DHT22;24661;53.566;9.910;2023-05-23T11:37:14;14.40;99.90
38902;DHT22;24661;53.566;9.910;2023-05-23T11:39:41;14.40;99.90
38902;DHT22;24661;53.566;9.910;2023-05-23T11:42:07;14.60;99.90
38902;DHT22;24661;53.566;9.910;2023-05-23T11:44:33;14.70;99.90
38902;DHT22;24661;53.566;9.910;2023-05-23T11:47:03;14.70;99.90
38902;DHT22;24661;53.566;9.910;2023-05-23T11:49:30;14.70;99.90
38902;DHT22;24661;53.566;9.910;2023-05-23T11:52:00;14.60;99.90
38902;DHT22;24661;53.566;9.910;2023-05-23T11:54:26;14.50;99.90
38902;DHT22;24661;53.566;9.910;2023-05-23T11:56:52;14.30;99.90
38902;DHT22;24661;53.566;9.910;2023-05-23T11:59:18;14.30;99.90
38902;DHT22;24661;53.566;9.910;2023-05-23T12:01:44;14.30;99.90
38902;DHT22;24661;53.566;9.910;2023-05-23T12:04:10;14.30;99.90
38902;DHT22;24661;53.566;9.910;2023-05-23T12:06:38;14.60;99.90
38902;DHT22;24661;53.566;9.910;2023-05-23T12:09:05;14.60;99.90
38902;DHT22;24661;53.566;9.910;2023-05-23T12:11:31;14.80;99.90
38902;DHT22;24661;53.566;9.910;2023-05-23T12:13:57;14.90;99.90
38902;DHT22;24661;53.566;9.910;2023-05-23T12:16:30;15.10;99.90
38902;DHT22;24661;53.566;9.910;2023-05-23T12:18:56;15.10;99.90
38902;DHT22;24661;53.566;9.910;2023-05-23T12:21:25;15.10;99.90
38902;DHT22;24661;53.566;9.910;2023-05-23T12:23:51;15.30;99.90
38902;DHT22;24661;53.566;9.910;2023-05-23T12:26:17;15.60;99.90
38902;DHT22;24661;53.566;9.910;2023-05-23T12:28:43;15.60;99.90
38902;DHT22;24661;53.566;9.910;2023-05-23T12:31:20;15.70;99.90
38902;DHT22;24661;53.566;9.910;2023-05-23T12:33:47;15.70;99.90
38902;DHT22;24661;53.566;9.910;2023-05-23T12:36:14;15.70;99.90
38902;DHT22;24661;53.566;9.910;2023-05-23T12:38:41;15.60;99.90
38902;DHT22;24661;53.566;9.910;2023-05-23T12:41:17;15.80;99.90
38902;DHT22;24661;53.566;9.910;2023-05-23T12:43:53;15.80;99.90
38902;DHT22;24661;53.566;9.910;2023-05-23T12:46:21;15.90;99.90
38902;DHT22;24661;53.566;9.910;2023-05-23T12:48:46;15.70;99.90
38902;DHT22;24661;53.566;9.910;2023-05-23T12:51:13;15.70;99.90
38902;DHT22;24661;53.566;9.910;2023-05-23T12:53:39;15.80;99.90
38902;DHT22;24661;53.566;9.910;2023-05-23T12:56:05;15.80;99.90
38902;DHT22;24661;53.566;9.910;2023-05-23T12:58:30;15.90;99.90
38902;DHT22;24661;53.566;9.910;2023-05-23T13:00:57;15.90;99.90
38902;DHT22;24661;53.566;9.910;2023-05-23T13:03:23;15.70;99.90
38902;DHT22;24661;53.566;9.910;2023-05-23T13:05:49;15.70;99.90
38902;DHT22;24661;53.566;9.910;2023-05-23T13:08:15;15.90;99.90
38902;DHT22;24661;53.566;9.910;2023-05-23T13:10:41;15.90;99.90
38902;DHT22;24661;53.566;9.910;2023-05-23T13:13:06;15.60;99.90
38902;DHT22;24661;53.566;9.910;2023-05-23T13:15:32;15.50;99.90
38902;DHT22;24661;53.566;9.910;2023-05-23T13:17:58;15.40;99.90
38902;DHT22;24661;53.566;9.910;2023-05-23T13:20:25;15.20;99.90
38902;DHT22;24661;53.566;9.910;2023-05-23T13:22:57;15.10;99.90
38902;DHT22;24661;53.566;9.910;2023-05-23T13:25:24;14.90;99.90
38902;DHT22;24661;53.566;9.910;2023-05-23T13:27:50;14.90;99.90
38902;DHT22;24661;53.566;9.910;2023-05-23T13:30:17;14.80;99.90
38902;DHT22;24661;53.566;9.910;2023-05-23T13:32:49;14.70;99.90
38902;DHT22;24661;53.566;9.910;2023-05-23T13:35:15;14.60;99.90
38902;DHT22;24661;53.566;9.910;2023-05-23T13:37:43;14.60;99.90
38902;DHT22;24661;53.566;9.910;2023-05-23T13:40:12;14.70;99.90
38902;DHT22;24661;53.566;9.910;2023-05-23T13:42:38;14.60;99.90
38902;DHT22;24661;53.566;9.910;2023-05-23T13:45:05;14.70;99.90
38902;DHT22;24661;53.566;9.910;2023-05-23T13:47:30;14.70;99.90
38902;DHT22;24661;53.566;9.910;2023-05-23T13:49:56;14.70;99.90
38902;DHT22;24661;53.566;9.910;2023-05-23T13:52:22;14.80;99.90
38902;DHT22;24661;53.566;9.910;2023-05-23T13:54:47;14.70;99.90
38902;DHT22;24661;53.566;9.910;2023-05-23T13:57:13;14.90;99.90
38902;DHT22;24661;53.566;9.910;2023-05-23T13:59:38;15.10;99.90
38902;DHT22;24661;53.566;9.910;2023-05-23T14:02:06;15.20;99.90
38902;DHT22;24661;53.566;9.910;2023-05-23T14:04:32;15.30;99.90
38902;DHT22;24661;53.566;9.910;2023-05-23T14:06:58;15.30;99.90
38902;DHT22;24661;53.566;9.910;2023-05-23T14:09:24;15.30;99.90
38902;DHT22;24661;53.566;9.910;2023-05-23T14:11:49;15.20;99.90
38902;DHT22;24661;53.566;9.910;2023-05-23T14:14:17;15.10;99.90
38902;DHT22;24661;53.566;9.910;2023-05-23T14:16:43;15.10;99.90
38902;DHT22;24661;53.566;9.910;2023-05-23T14:19:08;15.10;99.90
38902;DHT22;24661;53.566;9.910;2023-05-23T14:21:34;15.20;99.90
38902;DHT22;24661;53.566;9.910;2023-05-23T14:24:01;15.10;99.90
38902;DHT22;24661;53.566;9.910;2023-05-23T14:26:26;15.10;99.90
38902;DHT22;24661;53.566;9.910;2023-05-23T14:28:52;14.90;99.90
38902;DHT22;24661;53.566;9.910;2023-05-23T14:31:18;14.60;99.90
38902;DHT22;24661;53.566;9.910;2023-05-23T14:33:44;14.60;99.90
38902;DHT22;24661;53.566;9.910;2023-05-23T14:36:10;14.60;99.90
38902;DHT22;24661;53.566;9.910;2023-05-23T14:38:36;14.40;99.90
38902;DHT22;24661;53.566;9.910;2023-05-23T14:41:04;14.30;99.90
38902;DHT22;24661;53.566;9.910;2023-05-23T14:43:29;14.20;99.90
38902;DHT22;24661;53.566;9.910;2023-05-23T14:45:55;14.30;99.90
38902;DHT22;24661;53.566;9.910;2023-05-23T14:48:20;14.20;99.90
38902;DHT22;24661;53.566;9.910;2023-05-23T14:50:46;14.20;99.90
38902;DHT22;24661;53.566;9.910;2023-05-23T14:53:12;14.40;99.90
38902;DHT22;24661;53.566;9.910;2023-05-23T14:55:38;14.30;99.90
38902;DHT22;24661;53.566;9.910;2023-05-23T14:58:03;14.50;99.90
38902;DHT22;24661;53.566;9.910;2023-05-23T15:00:30;14.40;99.90
38902;DHT22;24661;53.566;9.910;2023-05-23T15:02:57;14.40;99.90
38902;DHT22;24661;53.566;9.910;2023-05-23T15:05:24;14.40;99.90
38902;DHT22;24661;53.566;9.910;2023-05-23T15:07:49;14.40;99.90
38902;DHT22;24661;53.566;9.910;2023-05-23T15:10:15;14.50;99.90
38902;DHT22;24661;53.566;9.910;2023-05-23T15:12:42;14.30;99.90
38902;DHT22;24661;53.566;9.910;2023-05-23T15:15:08;14.20;99.90
38902;DHT22;24661;53.566;9.910;2023-05-23T15:17:34;14.20;99.90
38902;DHT22;24661;53.566;9.910;2023-05-23T15:20:01;14.20;99.90
38902;DHT22;24661;53.566;9.910;2023-05-23T15:22:27;13.50;99.90
38902;DHT22;24661;53.566;9.910;2023-05-23T15:24:52;14.20;99.90
38902;DHT22;24661;53.566;9.910;2023-05-23T15:27:18;14.30;99.90
38902;DHT22;24661;53.566;9.910;2023-05-23T15:29:46;14.30;99.90
38902;DHT22;24661;53.566;9.910;2023-05-23T15:32:12;14.20;99.90
38902;DHT22;24661;53.566;9.910;2023-05-23T15:34:38;14.00;99.90
38902;DHT22;24661;53.566;9.910;2023-05-23T15:37:03;14.00;99.90
38902;DHT22;24661;53.566;9.910;2023-05-23T15:39:29;14.00;99.90
38902;DHT22;24661;53.566;9.910;2023-05-23T15:41:55;13.90;99.90
38902;DHT22;24661;53.566;9.910;2023-05-23T15:44:20;13.70;99.90
38902;DHT22;24661;53.566;9.910;2023-05-23T15:46:50;13.70;99.90
38902;DHT22;24661;53.566;9.910;2023-05-23T15:49:16;13.70;99.90
38902;DHT22;24661;53.566;9.910;2023-05-23T15:51:44;13.60;99.90
38902;DHT22;24661;53.566;9.910;2023-05-23T15:54:10;13.60;99.90